createdAt,value
2018-07-12T00:01:59.627Z,99.90
2018-07-12T00:04:26.238Z,99.90
2018-07-12T00:06:52.797Z,99.90
2018-07-12T00:09:19.385Z,99.90
2018-07-12T00:11:45.974Z,99.90
2018-07-12T00:14:12.546Z,99.90
2018-07-12T00:16:39.120Z,99.90
2018-07-12T00:19:05.705Z,99.90
2018-07-12T00:21:32.279Z,99.90
2018-07-12T00:23:58.862Z,99.90
2018-07-12T00:26:25.558Z,99.90
2018-07-12T00:28:52.100Z,99.90
2018-07-12T00:31:18.673Z,99.90
2018-07-12T00:33:45.357Z,99.90
2018-07-12T00:36:11.864Z,99.90
2018-07-12T00:38:38.404Z,99.90
2018-07-12T00:41:04.998Z,99.90
2018-07-12T00:43:31.577Z,99.90
2018-07-12T00:45:58.120Z,99.90
2018-07-12T00:48:24.664Z,99.90
2018-07-12T00:50:51.252Z,99.90
2018-07-12T00:53:17.821Z,99.90
2018-07-12T00:55:44.381Z,99.90
2018-07-12T00:58:10.957Z,99.90
2018-07-12T01:00:37.513Z,99.90
2018-07-12T01:03:04.057Z,99.90
2018-07-12T01:08:08.262Z,99.90
2018-07-12T01:10:34.816Z,99.90
2018-07-12T01:13:01.390Z,99.90
2018-07-12T01:15:27.962Z,99.90
2018-07-12T01:20:21.576Z,99.90
2018-07-12T01:22:48.200Z,99.90
2018-07-12T01:25:14.758Z,99.90
2018-07-12T01:27:41.340Z,99.90
2018-07-12T01:30:07.902Z,99.90
2018-07-12T01:32:38.140Z,99.90
2018-07-12T01:35:04.706Z,99.90
2018-07-12T01:37:31.268Z,99.90
2018-07-12T01:39:57.838Z,99.90
2018-07-12T01:42:24.431Z,99.90
2018-07-12T01:44:51.012Z,99.90
2018-07-12T01:47:17.589Z,99.90
2018-07-12T01:49:44.157Z,99.90
2018-07-12T01:52:10.743Z,99.90
2018-07-12T01:54:37.324Z,99.90
2018-07-12T01:57:03.866Z,99.90
2018-07-12T01:59:30.414Z,99.90
2018-07-12T02:01:56.985Z,99.90
2018-07-12T02:04:23.571Z,99.90
2018-07-12T02:06:50.144Z,99.90
2018-07-12T02:09:16.688Z,99.90
2018-07-12T02:11:43.244Z,99.90
2018-07-12T02:14:09.805Z,99.90
2018-07-12T02:16:36.344Z,99.90
2018-07-12T02:19:02.904Z,99.90
2018-07-12T02:21:29.465Z,99.90
2018-07-12T02:23:56.035Z,99.90
2018-07-12T02:26:22.613Z,99.90
2018-07-12T02:28:49.224Z,99.90
2018-07-12T02:31:15.776Z,99.90
2018-07-12T02:33:45.926Z,99.90
2018-07-12T02:36:12.529Z,99.90
2018-07-12T02:38:39.084Z,99.90
2018-07-12T02:41:05.675Z,99.90
2018-07-12T02:45:59.230Z,99.90
2018-07-12T02:48:25.985Z,99.90
2018-07-12T02:50:52.518Z,99.90
2018-07-12T02:55:46.196Z,99.90
2018-07-12T02:58:12.803Z,99.90
2018-07-12T03:00:39.341Z,99.90
2018-07-12T03:03:05.950Z,99.90
2018-07-12T03:05:32.489Z,99.90
2018-07-12T03:07:59.098Z,99.90
2018-07-12T03:10:25.741Z,99.90
2018-07-12T03:12:52.345Z,99.90
2018-07-12T03:15:18.921Z,99.90
2018-07-12T03:17:45.648Z,99.90
2018-07-12T03:22:39.269Z,99.90
2018-07-12T03:25:05.960Z,99.90
2018-07-12T03:27:32.637Z,99.90
2018-07-12T03:29:59.198Z,99.90
2018-07-12T03:32:25.812Z,99.90
2018-07-12T03:34:52.377Z,99.90
2018-07-12T03:37:18.950Z,99.90
2018-07-12T03:39:45.540Z,99.90
2018-07-12T03:42:12.098Z,99.90
2018-07-12T03:44:38.623Z,99.90
2018-07-12T03:47:05.275Z,99.90
2018-07-12T03:49:31.900Z,99.90
2018-07-12T03:51:58.457Z,99.90
2018-07-12T03:54:25.039Z,99.90
2018-07-12T03:56:51.617Z,99.90
2018-07-12T03:59:18.206Z,99.90
2018-07-12T04:01:44.800Z,99.90
2018-07-12T04:04:11.417Z,99.90
2018-07-12T04:06:38.236Z,99.90
2018-07-12T04:09:05.229Z,99.90
2018-07-12T04:11:31.949Z,99.90
2018-07-12T04:13:58.540Z,99.90
2018-07-12T04:16:25.116Z,99.90
2018-07-12T04:18:51.701Z,99.90
2018-07-12T04:21:18.430Z,99.90
2018-07-12T04:23:45.166Z,99.90
2018-07-12T04:26:11.737Z,99.90
2018-07-12T04:28:38.329Z,99.90
2018-07-12T04:31:06.049Z,99.90
2018-07-12T04:33:32.640Z,99.90
2018-07-12T04:35:59.257Z,99.90
2018-07-12T04:38:25.836Z,99.90
2018-07-12T04:43:19.535Z,99.90
2018-07-12T04:45:46.089Z,99.90
2018-07-12T04:48:12.772Z,99.90
2018-07-12T04:50:39.478Z,99.90
2018-07-12T04:53:06.033Z,99.90
2018-07-12T04:55:32.597Z,99.90
2018-07-12T04:57:59.158Z,99.90
2018-07-12T05:00:25.732Z,99.90
2018-07-12T05:02:52.336Z,99.90
2018-07-12T05:05:18.921Z,99.90
2018-07-12T05:07:45.563Z,99.90
2018-07-12T05:10:12.151Z,99.90
2018-07-12T05:12:38.708Z,99.90
2018-07-12T05:15:05.366Z,99.90
2018-07-12T05:17:31.936Z,99.90
2018-07-12T05:19:58.509Z,99.90
2018-07-12T05:22:25.081Z,99.90
2018-07-12T05:24:51.646Z,99.90
2018-07-12T05:27:18.210Z,99.90
2018-07-12T05:29:44.805Z,99.90
2018-07-12T05:32:11.494Z,99.90
2018-07-12T05:34:38.075Z,99.90
2018-07-12T05:37:06.205Z,99.90
2018-07-12T05:39:33.817Z,99.90
2018-07-12T05:42:01.430Z,99.90
2018-07-12T05:44:29.361Z,99.90
2018-07-12T05:46:57.072Z,99.90
2018-07-12T05:49:25.030Z,99.90
2018-07-12T05:51:52.709Z,99.90
2018-07-12T05:54:20.637Z,99.90
2018-07-12T05:56:48.376Z,99.90
2018-07-12T05:59:16.463Z,99.90
2018-07-12T06:01:55.808Z,99.90
2018-07-12T06:04:23.493Z,99.90
2018-07-12T06:06:51.058Z,99.90
2018-07-12T06:09:18.634Z,99.90
2018-07-12T06:11:46.253Z,99.90
2018-07-12T06:14:13.980Z,99.90
2018-07-12T06:16:41.589Z,99.90
2018-07-12T06:19:09.240Z,99.90
2018-07-12T06:21:36.833Z,99.90
2018-07-12T06:24:04.650Z,99.90
2018-07-12T06:26:32.269Z,99.90
2018-07-12T06:28:59.887Z,99.90
2018-07-12T06:31:27.772Z,99.90
2018-07-12T06:33:55.527Z,99.90
2018-07-12T06:36:23.144Z,99.90
2018-07-12T06:38:50.749Z,99.90
2018-07-12T06:41:18.354Z,99.90
2018-07-12T06:46:13.689Z,99.90
2018-07-12T06:48:41.373Z,99.90
2018-07-12T06:51:08.972Z,99.90
2018-07-12T06:53:36.553Z,99.90
2018-07-12T06:56:04.149Z,99.90
2018-07-12T06:58:31.752Z,99.90
2018-07-12T07:00:59.366Z,99.90
2018-07-12T07:03:27.063Z,99.90
2018-07-12T07:05:54.621Z,99.90
2018-07-12T07:08:22.267Z,99.90
2018-07-12T07:10:49.882Z,99.90
2018-07-12T07:13:17.561Z,99.90
2018-07-12T07:15:45.192Z,99.90
2018-07-12T07:18:12.770Z,99.90
2018-07-12T07:20:40.456Z,99.90
2018-07-12T07:23:08.076Z,99.90
2018-07-12T07:25:35.696Z,99.90
2018-07-12T07:28:03.314Z,99.90
2018-07-12T07:30:30.887Z,99.90
2018-07-12T07:32:58.497Z,99.90
2018-07-12T07:35:26.145Z,99.90
2018-07-12T07:37:53.738Z,99.90
2018-07-12T07:40:21.345Z,99.90
2018-07-12T07:42:49.017Z,99.90
2018-07-12T07:45:16.657Z,99.90
2018-07-12T07:47:44.298Z,99.90
2018-07-12T07:50:11.877Z,99.90
2018-07-12T07:52:39.521Z,99.90
2018-07-12T07:55:07.121Z,99.90
2018-07-12T07:57:34.740Z,99.90
2018-07-12T08:00:02.384Z,99.90
2018-07-12T08:04:57.512Z,99.90
2018-07-12T08:07:25.120Z,99.90
2018-07-12T08:09:52.741Z,99.90
2018-07-12T08:12:20.368Z,99.90
2018-07-12T08:14:48.201Z,99.90
2018-07-12T08:17:16.425Z,99.90
2018-07-12T08:19:44.418Z,99.90
2018-07-12T08:22:12.806Z,99.90
2018-07-12T08:24:40.964Z,99.90
2018-07-12T08:27:08.720Z,99.90
2018-07-12T08:29:36.309Z,99.90
2018-07-12T08:32:04.496Z,99.90
2018-07-12T08:34:32.349Z,99.90
2018-07-12T08:36:59.978Z,98.10
2018-07-12T08:39:27.694Z,95.40
2018-07-12T08:41:55.506Z,91.50
2018-07-12T08:46:50.679Z,92.10
2018-07-12T08:49:18.237Z,90.10
2018-07-12T08:51:46.225Z,90.60
2018-07-12T08:54:14.035Z,89.90
2018-07-12T08:56:42.100Z,88.90
2018-07-12T08:59:09.705Z,85.70
2018-07-12T09:01:37.495Z,86.10
2018-07-12T09:04:05.185Z,87.80
2018-07-12T09:06:32.809Z,86.00
2018-07-12T09:09:00.402Z,90.50
2018-07-12T09:11:28.057Z,91.20
2018-07-12T09:13:55.669Z,91.10
2018-07-12T09:16:23.304Z,92.50
2018-07-12T09:21:18.441Z,95.50
2018-07-12T09:23:46.057Z,94.00
2018-07-12T09:26:13.694Z,92.60
2018-07-12T09:28:41.281Z,87.80
2018-07-12T09:31:08.987Z,90.00
2018-07-12T09:33:36.707Z,90.50
2018-07-12T09:36:04.320Z,91.10
2018-07-12T09:38:50.953Z,86.00
2018-07-12T09:41:19.520Z,85.40
2018-07-12T09:43:47.716Z,80.20
2018-07-12T09:46:16.610Z,71.60
2018-07-12T09:48:45.493Z,70.80
2018-07-12T09:51:13.757Z,77.30
2018-07-12T09:53:42.540Z,76.40
2018-07-12T09:56:10.290Z,63.60
2018-07-12T09:58:37.779Z,58.20
2018-07-12T10:01:11.153Z,60.20
2018-07-12T10:03:46.271Z,61.80
2018-07-12T10:06:19.756Z,67.60
2018-07-12T10:08:52.740Z,66.00
2018-07-12T10:11:26.613Z,62.50
2018-07-12T10:13:59.828Z,57.40
2018-07-12T10:16:33.219Z,57.30
2018-07-12T10:19:00.822Z,58.00
2018-07-12T10:21:28.462Z,57.60
2018-07-12T10:23:56.072Z,59.60
2018-07-12T10:26:23.656Z,62.20
2018-07-12T10:28:51.315Z,64.20
2018-07-12T10:31:19.160Z,64.80
2018-07-12T10:33:46.793Z,68.80
2018-07-12T10:36:14.409Z,66.90
2018-07-12T10:38:42.011Z,63.30
2018-07-12T10:41:09.653Z,54.50
2018-07-12T10:43:37.247Z,52.20
2018-07-12T10:46:04.881Z,51.30
2018-07-12T10:48:32.510Z,51.80
2018-07-12T10:51:00.086Z,51.60
2018-07-12T10:53:27.734Z,52.50
2018-07-12T10:55:55.324Z,55.60
2018-07-12T10:58:22.924Z,51.80
2018-07-12T11:00:50.513Z,48.80
2018-07-12T11:03:18.144Z,47.40
2018-07-12T11:05:45.816Z,47.50
2018-07-12T11:08:13.458Z,49.40
2018-07-12T11:10:41.109Z,50.20
2018-07-12T11:13:16.732Z,49.40
2018-07-12T11:15:45.231Z,49.60
2018-07-12T11:18:12.872Z,48.90
2018-07-12T11:20:40.625Z,51.50
2018-07-12T11:23:08.253Z,49.80
2018-07-12T11:25:35.870Z,46.90
2018-07-12T11:28:03.867Z,43.70
2018-07-12T11:30:31.741Z,42.70
2018-07-12T11:32:59.349Z,40.70
2018-07-12T11:35:26.933Z,42.50
2018-07-12T11:37:54.500Z,44.00
2018-07-12T11:40:22.111Z,41.90
2018-07-12T11:42:49.694Z,41.40
2018-07-12T11:45:17.365Z,42.40
2018-07-12T11:47:45.269Z,43.10
2018-07-12T11:50:13.020Z,45.40
2018-07-12T11:52:40.665Z,46.40
2018-07-12T11:55:08.253Z,47.80
2018-07-12T11:57:35.948Z,44.70
2018-07-12T12:00:03.933Z,47.00
2018-07-12T12:02:31.521Z,50.40
2018-07-12T12:04:59.136Z,47.70
2018-07-12T12:07:31.100Z,48.40
2018-07-12T12:09:58.798Z,47.70
2018-07-12T12:12:26.530Z,47.60
2018-07-12T12:19:53.216Z,57.40
2018-07-12T12:24:48.357Z,50.60
2018-07-12T12:27:15.954Z,49.20
2018-07-12T12:29:43.589Z,49.10
2018-07-12T12:32:11.177Z,42.90
2018-07-12T12:34:39.849Z,41.10
2018-07-12T12:37:07.444Z,41.00
2018-07-12T12:39:35.021Z,41.30
2018-07-12T12:42:02.657Z,42.10
2018-07-12T12:44:30.261Z,42.10
2018-07-12T12:46:57.827Z,42.90
2018-07-12T12:49:25.421Z,44.30
2018-07-12T12:51:53.468Z,45.20
2018-07-12T12:54:21.060Z,46.60
2018-07-12T12:56:48.693Z,46.50
2018-07-12T12:59:16.297Z,45.10
2018-07-12T13:01:43.864Z,44.00
2018-07-12T13:04:11.468Z,43.30
2018-07-12T13:06:39.050Z,45.20
2018-07-12T13:09:06.713Z,45.00
2018-07-12T13:11:34.369Z,45.90
2018-07-12T13:14:01.979Z,47.20
2018-07-12T13:16:29.725Z,47.00
2018-07-12T13:18:57.645Z,46.20
2018-07-12T13:21:25.322Z,44.70
2018-07-12T13:23:52.903Z,44.90
2018-07-12T13:26:20.681Z,45.80
2018-07-12T13:28:48.368Z,46.20
2018-07-12T13:31:15.990Z,47.40
2018-07-12T13:33:43.585Z,47.90
2018-07-12T13:36:11.163Z,48.30
2018-07-12T13:38:38.840Z,48.70
2018-07-12T13:41:06.735Z,49.60
2018-07-12T13:43:34.374Z,48.20
2018-07-12T13:46:02.132Z,48.10
2018-07-12T13:48:29.721Z,47.90
2018-07-12T13:50:57.416Z,47.80
2018-07-12T13:53:25.216Z,49.30
2018-07-12T13:55:52.813Z,49.50
2018-07-12T13:58:20.412Z,47.20
2018-07-12T14:00:47.969Z,47.50
2018-07-12T14:03:15.632Z,47.20
2018-07-12T14:05:43.241Z,48.10
2018-07-12T14:08:10.841Z,46.50
2018-07-12T14:10:38.504Z,47.40
2018-07-12T14:13:06.172Z,47.00
2018-07-12T14:15:33.853Z,47.40
2018-07-12T14:18:01.555Z,44.40
2018-07-12T14:20:29.477Z,44.10
2018-07-12T14:22:58.225Z,44.90
2018-07-12T14:25:25.889Z,45.30
2018-07-12T14:27:53.537Z,46.50
2018-07-12T14:32:48.759Z,43.10
2018-07-12T14:35:16.368Z,42.60
2018-07-12T14:37:44.049Z,42.60
2018-07-12T14:40:11.774Z,41.60
2018-07-12T14:42:39.348Z,41.80
2018-07-12T14:45:07.331Z,41.90
2018-07-12T14:47:34.944Z,41.70
2018-07-12T14:50:02.793Z,40.80
2018-07-12T14:52:34.380Z,39.80
2018-07-12T14:55:02.130Z,40.70
2018-07-12T14:57:29.946Z,39.90
2018-07-12T14:59:57.852Z,42.90
2018-07-12T15:02:25.562Z,41.60
2018-07-12T15:04:54.400Z,41.00
2018-07-12T15:09:50.193Z,41.60
2018-07-12T15:12:18.013Z,42.40
2018-07-12T15:14:45.652Z,43.10
2018-07-12T15:17:13.261Z,42.90
2018-07-12T15:19:41.138Z,42.40
2018-07-12T15:22:12.432Z,43.10
2018-07-12T15:24:47.049Z,44.00
2018-07-12T15:27:15.828Z,45.00
2018-07-12T15:29:47.370Z,45.20
2018-07-12T15:32:20.929Z,45.80
2018-07-12T15:34:48.529Z,46.70
2018-07-12T15:37:17.507Z,46.50
2018-07-12T15:39:50.761Z,46.40
2018-07-12T15:42:21.643Z,46.50
2018-07-12T15:44:49.530Z,46.60
2018-07-12T15:47:24.845Z,47.60
2018-07-12T15:49:58.527Z,48.90
2018-07-12T15:52:26.513Z,48.40
2018-07-12T15:54:54.236Z,47.50
2018-07-12T15:57:21.897Z,47.40
2018-07-12T15:59:51.705Z,45.40
2018-07-12T16:02:19.726Z,46.70
2018-07-12T16:04:47.420Z,48.20
2018-07-12T16:07:15.137Z,49.40
2018-07-12T16:09:42.748Z,47.90
2018-07-12T16:12:10.385Z,47.80
2018-07-12T16:14:38.859Z,49.20
2018-07-12T16:17:10.452Z,49.90
2018-07-12T16:19:38.159Z,49.00
2018-07-12T16:22:06.089Z,46.20
2018-07-12T16:24:33.910Z,47.30
2018-07-12T16:27:01.548Z,48.00
2018-07-12T16:29:29.168Z,48.70
2018-07-12T16:31:57.133Z,49.30
2018-07-12T16:34:24.781Z,49.30
2018-07-12T16:36:52.428Z,50.50
2018-07-12T16:41:47.671Z,50.40
2018-07-12T16:44:15.412Z,51.40
2018-07-12T16:46:43.245Z,51.10
2018-07-12T16:49:10.918Z,51.10
2018-07-12T16:51:38.624Z,50.70
2018-07-12T16:54:06.394Z,50.30
2018-07-12T16:56:34.135Z,49.30
2018-07-12T16:59:02.063Z,49.20
2018-07-12T17:01:29.957Z,48.70
2018-07-12T17:03:57.543Z,48.40
2018-07-12T17:06:25.257Z,49.00
2018-07-12T17:08:53.074Z,48.10
2018-07-12T17:11:20.661Z,48.30
2018-07-12T17:13:48.766Z,48.90
2018-07-12T17:16:16.486Z,48.60
2018-07-12T17:18:44.128Z,49.00
2018-07-12T17:21:11.828Z,49.40
2018-07-12T17:23:39.521Z,50.00
2018-07-12T17:26:07.364Z,50.30
2018-07-12T17:28:35.370Z,50.10
2018-07-12T17:31:03.161Z,50.00
2018-07-12T17:33:30.807Z,50.30
2018-07-12T17:36:02.343Z,50.40
2018-07-12T17:38:30.357Z,50.50
2018-07-12T17:40:58.290Z,51.00
2018-07-12T17:43:26.210Z,51.00
2018-07-12T17:45:53.810Z,50.50
2018-07-12T17:48:22.540Z,51.00
2018-07-12T17:50:50.452Z,51.70
2018-07-12T17:53:18.167Z,52.00
2018-07-12T17:55:45.781Z,52.30
2018-07-12T17:58:13.480Z,51.60
2018-07-12T18:00:41.192Z,51.50
2018-07-12T18:03:08.986Z,52.30
2018-07-12T18:05:36.857Z,52.60
2018-07-12T18:08:05.045Z,52.30
2018-07-12T18:10:32.892Z,52.10
2018-07-12T18:13:00.693Z,52.20
2018-07-12T18:15:28.502Z,52.90
2018-07-12T18:17:56.281Z,52.50
2018-07-12T18:20:23.921Z,53.20
2018-07-12T18:22:52.028Z,53.10
2018-07-12T18:25:19.978Z,53.80
2018-07-12T18:27:47.937Z,54.70
2018-07-12T18:30:15.565Z,55.00
2018-07-12T18:32:43.353Z,55.60
2018-07-12T18:35:11.074Z,56.50
2018-07-12T18:37:39.901Z,57.10
2018-07-12T18:40:07.653Z,57.30
2018-07-12T18:42:35.288Z,57.70
2018-07-12T18:45:03.157Z,58.00
2018-07-12T18:47:31.598Z,58.70
2018-07-12T18:49:59.340Z,59.20
2018-07-12T18:52:28.089Z,59.60
2018-07-12T18:54:55.842Z,60.00
2018-07-12T18:57:23.531Z,60.80
2018-07-12T18:59:51.208Z,61.50
2018-07-12T19:02:18.833Z,61.90
2018-07-12T19:04:46.761Z,63.10
2018-07-12T19:07:14.364Z,64.10
2018-07-12T19:09:42.316Z,64.90
2018-07-12T19:12:10.219Z,65.80
2018-07-12T19:14:37.996Z,66.50
2018-07-12T19:17:06.353Z,67.20
2018-07-12T19:19:34.096Z,68.20
2018-07-12T19:22:01.740Z,68.60
2018-07-12T19:24:29.476Z,69.60
2018-07-12T19:26:57.177Z,70.30
2018-07-12T19:29:24.910Z,70.90
2018-07-12T19:31:52.565Z,71.70
2018-07-12T19:34:20.196Z,72.90
2018-07-12T19:36:47.898Z,73.90
2018-07-12T19:39:15.521Z,75.10
2018-07-12T19:41:43.173Z,76.20
2018-07-12T19:44:10.805Z,77.50
2018-07-12T19:46:38.504Z,79.10
2018-07-12T19:49:08.117Z,80.40
2018-07-12T19:51:35.784Z,82.20
2018-07-12T19:54:03.485Z,83.20
2018-07-12T19:56:34.469Z,84.60
2018-07-12T19:59:02.245Z,85.60
2018-07-12T20:01:29.865Z,86.80
2018-07-12T20:03:57.559Z,87.80
2018-07-12T20:06:25.339Z,89.00
2018-07-12T20:08:52.970Z,90.00
2018-07-12T20:11:20.578Z,90.30
2018-07-12T20:13:48.189Z,90.70
2018-07-12T20:16:15.845Z,91.00
2018-07-12T20:18:43.497Z,91.30
2018-07-12T20:21:11.242Z,91.70
2018-07-12T20:23:39.045Z,92.10
2018-07-12T20:26:06.956Z,92.40
2018-07-12T20:28:34.575Z,92.60
2018-07-12T20:31:02.185Z,92.80
2018-07-12T20:33:29.858Z,93.00
2018-07-12T20:35:57.481Z,93.30
2018-07-12T20:38:25.179Z,93.50
2018-07-12T20:40:52.850Z,93.70
2018-07-12T20:43:21.108Z,94.00
2018-07-12T20:45:49.262Z,94.50
2018-07-12T20:48:17.391Z,94.80
2018-07-12T20:50:45.243Z,95.10
2018-07-12T20:53:12.975Z,95.40
2018-07-12T20:55:40.585Z,95.70
2018-07-12T20:58:08.454Z,96.00
2018-07-12T21:00:36.094Z,96.30
2018-07-12T21:03:03.719Z,96.60
2018-07-12T21:05:31.362Z,96.80
2018-07-12T21:07:58.953Z,97.40
2018-07-12T21:10:26.634Z,97.20
2018-07-12T21:15:21.949Z,97.90
2018-07-12T21:17:49.569Z,98.50
2018-07-12T21:20:17.197Z,98.50
2018-07-12T21:25:12.380Z,99.20
2018-07-12T21:27:39.976Z,99.80
2018-07-12T21:30:09.449Z,99.80
2018-07-12T21:32:37.319Z,99.90
2018-07-12T21:35:05.606Z,99.90
2018-07-12T21:37:33.272Z,99.90
2018-07-12T21:40:01.071Z,99.90
2018-07-12T21:42:28.741Z,99.90
2018-07-12T21:44:56.349Z,99.90
2018-07-12T21:47:23.973Z,99.90
2018-07-12T21:52:19.320Z,99.90
2018-07-12T21:54:47.434Z,99.90
2018-07-12T21:57:15.054Z,99.90
2018-07-12T21:59:42.704Z,99.90
2018-07-12T22:02:10.319Z,99.90
2018-07-12T22:04:37.916Z,99.90
2018-07-12T22:09:39.083Z,99.90
2018-07-12T22:12:06.793Z,99.90
2018-07-12T22:14:34.385Z,99.90
2018-07-12T22:17:05.791Z,99.90
2018-07-12T22:19:33.389Z,99.90
2018-07-12T22:22:01.007Z,99.90
2018-07-12T22:24:28.608Z,99.90
2018-07-12T22:26:56.486Z,99.90
2018-07-12T22:29:24.104Z,99.90
2018-07-12T22:31:51.770Z,99.90
2018-07-12T22:34:20.392Z,99.90
2018-07-12T22:36:48.014Z,99.90
2018-07-12T22:39:15.645Z,99.90
2018-07-12T22:41:43.328Z,99.90
2018-07-12T22:44:10.956Z,99.90
2018-07-12T22:46:38.538Z,99.90
2018-07-12T22:49:06.251Z,99.90
2018-07-12T22:51:33.809Z,99.90
2018-07-12T22:54:01.411Z,99.90
2018-07-12T22:56:29.081Z,99.90
2018-07-12T22:58:56.708Z,99.90
2018-07-12T23:01:24.493Z,99.90
2018-07-12T23:03:52.128Z,99.90
2018-07-12T23:06:19.759Z,99.90
2018-07-12T23:08:47.370Z,99.90
2018-07-12T23:11:15.023Z,99.90
2018-07-12T23:13:42.862Z,99.90
2018-07-12T23:16:10.432Z,99.90
2018-07-12T23:18:38.959Z,99.90
2018-07-12T23:21:06.692Z,99.90
2018-07-12T23:23:34.390Z,99.90
2018-07-12T23:26:01.995Z,99.90
2018-07-12T23:28:29.628Z,99.90
2018-07-12T23:30:57.229Z,99.90
2018-07-12T23:33:24.848Z,99.90
2018-07-12T23:38:20.021Z,99.90
2018-07-12T23:40:47.597Z,99.90
2018-07-12T23:43:15.257Z,99.90
2018-07-12T23:45:43.041Z,99.90
2018-07-12T23:48:10.670Z,99.90
2018-07-12T23:50:40.342Z,99.90
2018-07-12T23:53:07.948Z,99.90
2018-07-12T23:55:35.582Z,99.90
2018-07-12T23:58:03.182Z,99.90
